Wetterdaten: Mittwoch, 04.07.2012
Datum Zeit Temperatur Luftfeuchte Regen Wind Richtung Richtung Taupunkt Windchill Windben
04.07.2012 00:00 15,4 C 94 % 0,0 l/m 0,2 km/h (0 Bft) N-NO 22 14,4 C 15,3 C 0,0 km/h (0 Bft)
04.07.2012 00:05 15,4 C 94 % 0,0 l/m 0,2 km/h (0 Bft) N 360 14,4 C 15,3 C 0,0 km/h (0 Bft)
04.07.2012 00:10 15,5 C 94 % 0,0 l/m 0,2 km/h (0 Bft) NO 45 14,5 C 15,4 C 0,0 km/h (0 Bft)
04.07.2012 00:15 15,5 C 94 % 0,0 l/m 0,2 km/h (0 Bft) NO 45 14,5 C 15,4 C 0,0 km/h (0 Bft)
04.07.2012 00:20 15,5 C 94 % 0,0 l/m 0,0 km/h (0 Bft) N-NO 22 14,5 C 15,4 C 0,0 km/h (0 Bft)
04.07.2012 00:25 15,5 C 94 % 0,0 l/m 0,0 km/h (0 Bft) N-NO 22 14,5 C 15,4 C 0,0 km/h (0 Bft)
04.07.2012 00:30 15,5 C 94 % 0,0 l/m 0,0 km/h (0 Bft) N 360 14,5 C 15,5 C 0,0 km/h (0 Bft)
04.07.2012 00:35 15,5 C 94 % 0,0 l/m 0,0 km/h (0 Bft) O 90 14,5 C 15,5 C 0,0 km/h (0 Bft)
04.07.2012 00:40 15,5 C 94 % 0,0 l/m 0,0 km/h (0 Bft) N 360 14,5 C 15,5 C 0,0 km/h (0 Bft)
04.07.2012 00:45 15,5 C 94 % 0,0 l/m 0,2 km/h (0 Bft) N 360 14,5 C 15,5 C 2,3 km/h (1 Bft)
04.07.2012 00:50 15,5 C 94 % 0,0 l/m 0,5 km/h (0 Bft) N-NO 22 14,5 C 15,5 C 0,0 km/h (0 Bft)
04.07.2012 00:55 15,5 C 94 % 0,0 l/m 0,5 km/h (0 Bft) N-NO 22 14,5 C 15,5 C 0,0 km/h (0 Bft)
04.07.2012 01:00 15,5 C 94 % 0,0 l/m 0,0 km/h (0 Bft) NO 45 14,5 C 15,5 C 0,0 km/h (0 Bft)
04.07.2012 01:05 15,5 C 94 % 0,0 l/m 0,0 km/h (0 Bft) O-SO 112 14,5 C 15,5 C 0,0 km/h (0 Bft)
04.07.2012 01:10 15,5 C 94 % 0,0 l/m 0,0 km/h (0 Bft) SO 135 14,5 C 15,5 C 0,0 km/h (0 Bft)
04.07.2012 01:15 15,5 C 94 % 0,0 l/m 0,0 km/h (0 Bft) N-NW 337 14,5 C 15,5 C 0,0 km/h (0 Bft)
04.07.2012 01:20 15,5 C 94 % 0,0 l/m 0,0 km/h (0 Bft) NW 315 14,5 C 15,5 C 0,0 km/h (0 Bft)
04.07.2012 01:25 15,5 C 94 % 0,0 l/m 0,0 km/h (0 Bft) N-NO 22 14,5 C 15,5 C 0,0 km/h (0 Bft)
04.07.2012 01:30 15,5 C 94 % 0,0 l/m 0,0 km/h (0 Bft) O-SO 112 14,5 C 15,5 C 0,0 km/h (0 Bft)
04.07.2012 01:35 15,6 C 94 % 0,0 l/m 0,0 km/h (0 Bft) N-NO 22 14,6 C 15,5 C 0,0 km/h (0 Bft)
04.07.2012 01:40 15,5 C 94 % 0,0 l/m 0,0 km/h (0 Bft) N-NO 22 14,5 C 15,5 C 0,0 km/h (0 Bft)
04.07.2012 01:45 15,5 C 94 % 0,0 l/m 0,0 km/h (0 Bft) N-NW 337 14,5 C 15,5 C 0,0 km/h (0 Bft)
04.07.2012 01:50 15,5 C 94 % 0,0 l/m 0,0 km/h (0 Bft) N 360 14,5 C 15,5 C 0,0 km/h (0 Bft)
04.07.2012 01:55 15,5 C 94 % 0,0 l/m 0,0 km/h (0 Bft) N-NO 22 14,5 C 15,5 C 0,0 km/h (0 Bft)
04.07.2012 02:00 15,5 C 94 % 0,0 l/m 0,0 km/h (0 Bft) SO 135 14,5 C 15,5 C 0,0 km/h (0 Bft)
04.07.2012 02:05 15,4 C 94 % 0,0 l/m 0,0 km/h (0 Bft) N-NO 22 14,4 C 15,4 C 0,0 km/h (0 Bft)
04.07.2012 02:10 15,4 C 94 % 0,0 l/m 0,0 km/h (0 Bft) N 360 14,4 C 15,3 C 0,0 km/h (0 Bft)
04.07.2012 02:15 15,4 C 94 % 0,0 l/m 0,0 km/h (0 Bft) N-NO 22 14,4 C 15,3 C 0,0 km/h (0 Bft)
04.07.2012 02:20 15,3 C 94 % 0,0 l/m 0,0 km/h (0 Bft) N-NW 337 14,3 C 15,3 C 0,0 km/h (0 Bft)
04.07.2012 02:25 15,3 C 94 % 0,0 l/m 0,0 km/h (0 Bft) O 90 14,3 C 15,3 C 0,0 km/h (0 Bft)
04.07.2012 02:30 15,2 C 94 % 0,0 l/m 0,0 km/h (0 Bft) N 360 14,2 C 15,2 C 0,0 km/h (0 Bft)
04.07.2012 02:35 15,2 C 94 % 0,0 l/m 0,0 km/h (0 Bft) S 180 14,2 C 15,1 C 0,0 km/h (0 Bft)
04.07.2012 02:40 15,0 C 94 % 0,0 l/m 0,0 km/h (0 Bft) O 90 14,0 C 15,0 C 0,0 km/h (0 Bft)
04.07.2012 02:45 14,9 C 95 % 0,0 l/m 0,0 km/h (0 Bft) O 90 14,1 C 14,9 C 0,0 km/h (0 Bft)
04.07.2012 02:50 14,6 C 94 % 0,0 l/m 0,0 km/h (0 Bft) SO 135 13,6 C 14,7 C 0,0 km/h (0 Bft)
04.07.2012 02:55 14,5 C 95 % 0,0 l/m 0,0 km/h (0 Bft) SO 135 13,7 C 14,6 C 0,0 km/h (0 Bft)
04.07.2012 03:00 14,2 C 94 % 0,0 l/m 0,0 km/h (0 Bft) S 180 13,2 C 14,3 C 0,0 km/h (0 Bft)
04.07.2012 03:05 14,2 C 94 % 0,0 l/m 0,0 km/h (0 Bft) N-NO 22 13,2 C 14,1 C 0,0 km/h (0 Bft)
04.07.2012 03:10 14,1 C 94 % 0,0 l/m 0,0 km/h (0 Bft) NO 45 13,1 C 13,9 C 0,0 km/h (0 Bft)
04.07.2012 03:15 13,9 C 94 % 0,0 l/m 0,0 km/h (0 Bft) N 360 12,9 C 13,8 C 0,0 km/h (0 Bft)
04.07.2012 03:20 13,6 C 94 % 0,0 l/m 0,0 km/h (0 Bft) S-SW 202 12,7 C 13,6 C 0,0 km/h (0 Bft)
04.07.2012 03:25 13,4 C 94 % 0,0 l/m 0,0 km/h (0 Bft) SO 135 12,5 C 13,4 C 0,0 km/h (0 Bft)
04.07.2012 03:30 13,4 C 94 % 0,0 l/m 0,0 km/h (0 Bft) SW 225 12,5 C 13,3 C 0,0 km/h (0 Bft)
04.07.2012 03:35 13,3 C 94 % 0,0 l/m 0,0 km/h (0 Bft) S-SW 202 12,4 C 13,2 C 0,0 km/h (0 Bft)
04.07.2012 03:40 13,1 C 94 % 0,0 l/m 0,0 km/h (0 Bft) O-NO 67 12,2 C 13,1 C 0,0 km/h (0 Bft)
04.07.2012 03:45 13,0 C 94 % 0,0 l/m 0,0 km/h (0 Bft) S 180 12,1 C 13,0 C 0,0 km/h (0 Bft)
04.07.2012 03:50 13,1 C 94 % 0,0 l/m 0,0 km/h (0 Bft) NO 45 12,2 C 12,9 C 0,0 km/h (0 Bft)
04.07.2012 03:55 13,1 C 94 % 0,0 l/m 0,0 km/h (0 Bft) O 90 12,2 C 12,9 C 0,0 km/h (0 Bft)
04.07.2012 04:00 13,0 C 94 % 0,0 l/m 0,2 km/h (0 Bft) S-SW 202 12,1 C 12,9 C 0,0 km/h (0 Bft)
04.07.2012 04:05 12,9 C 95 % 0,0 l/m 0,2 km/h (0 Bft) S 180 12,1 C 12,9 C 0,0 km/h (0 Bft)
04.07.2012 04:10 13,2 C 94 % 0,0 l/m 0,2 km/h (0 Bft) N-NO 22 12,3 C 12,9 C 0,0 km/h (0 Bft)
04.07.2012 04:15 13,4 C 94 % 0,0 l/m 0,2 km/h (0 Bft) N 360 12,5 C 13,1 C 0,0 km/h (0 Bft)
04.07.2012 04:20 13,6 C 94 % 0,0 l/m 0,0 km/h (0 Bft) N-NW 337 12,7 C 13,4 C 0,0 km/h (0 Bft)
04.07.2012 04:25 13,7 C 94 % 0,0 l/m 0,0 km/h (0 Bft) N-NO 22 12,8 C 13,5 C 0,0 km/h (0 Bft)
04.07.2012 04:30 13,9 C 94 % 0,0 l/m 0,2 km/h (0 Bft) N-NO 22 12,9 C 13,8 C 0,0 km/h (0 Bft)
04.07.2012 04:35 14,0 C 94 % 0,0 l/m 0,3 km/h (0 Bft) O-SO 112 13,0 C 13,9 C 0,0 km/h (0 Bft)
04.07.2012 04:40 14,1 C 94 % 0,0 l/m 0,2 km/h (0 Bft) N 360 13,1 C 14,1 C 2,4 km/h (1 Bft)
04.07.2012 04:45 14,2 C 94 % 0,0 l/m 0,0 km/h (0 Bft) O 90 13,2 C 14,1 C 0,0 km/h (0 Bft)
04.07.2012 04:50 14,2 C 94 % 0,0 l/m 0,0 km/h (0 Bft) O-SO 112 13,2 C 14,1 C 0,0 km/h (0 Bft)
04.07.2012 04:55 14,2 C 94 % 0,0 l/m 0,0 km/h (0 Bft) SO 135 13,2 C 14,1 C 0,0 km/h (0 Bft)
04.07.2012 05:00 14,2 C 95 % 0,0 l/m 0,0 km/h (0 Bft) N-NO 22 13,4 C 14,2 C 0,0 km/h (0 Bft)
04.07.2012 05:05 14,2 C 95 % 0,0 l/m 0,0 km/h (0 Bft) NO 45 13,4 C 14,2 C 0,0 km/h (0 Bft)
04.07.2012 05:10 14,3 C 95 % 0,0 l/m 0,0 km/h (0 Bft) SO 135 13,5 C 14,3 C 0,0 km/h (0 Bft)
04.07.2012 05:15 14,3 C 94 % 0,0 l/m 0,0 km/h (0 Bft) NO 45 13,3 C 14,3 C 0,0 km/h (0 Bft)
04.07.2012 05:20 14,4 C 95 % 0,0 l/m 0,0 km/h (0 Bft) N-NO 22 13,6 C 14,3 C 0,0 km/h (0 Bft)
04.07.2012 05:25 14,4 C 95 % 0,0 l/m 0,0 km/h (0 Bft) NO 45 13,6 C 14,3 C 0,0 km/h (0 Bft)
04.07.2012 05:30 14,4 C 95 % 0,0 l/m 0,0 km/h (0 Bft) N-NW 337 13,6 C 14,4 C 0,0 km/h (0 Bft)
04.07.2012 05:35 14,4 C 95 % 0,0 l/m 0,0 km/h (0 Bft) W-NW 292 13,6 C 14,4 C 0,0 km/h (0 Bft)
04.07.2012 05:40 14,4 C 95 % 0,0 l/m 0,0 km/h (0 Bft) S 180 13,6 C 14,3 C 0,0 km/h (0 Bft)
04.07.2012 05:45 14,3 C 95 % 0,0 l/m 0,0 km/h (0 Bft) N 360 13,5 C 14,3 C 0,0 km/h (0 Bft)
04.07.2012 05:50 14,2 C 95 % 0,0 l/m 0,2 km/h (0 Bft) O-NO 67 13,4 C 14,2 C 2,7 km/h (1 Bft)
04.07.2012 05:55 14,2 C 95 % 0,0 l/m 0,3 km/h (0 Bft) S 180 13,4 C 14,1 C 0,0 km/h (0 Bft)
04.07.2012 06:00 14,1 C 95 % 0,0 l/m 0,2 km/h (0 Bft) SO 135 13,3 C 14,1 C 0,0 km/h (0 Bft)
04.07.2012 06:05 14,1 C 95 % 0,0 l/m 0,0 km/h (0 Bft) NO 45 13,3 C 14,0 C 0,0 km/h (0 Bft)
04.07.2012 06:10 14,0 C 95 % 0,0 l/m 0,0 km/h (0 Bft) N-NO 22 13,2 C 14,0 C 0,0 km/h (0 Bft)
04.07.2012 06:15 14,1 C 95 % 0,0 l/m 0,0 km/h (0 Bft) O-SO 112 13,3 C 14,0 C 0,0 km/h (0 Bft)
04.07.2012 06:20 14,1 C 95 % 0,0 l/m 0,5 km/h (0 Bft) O-SO 112 13,3 C 14,1 C 3,4 km/h (1 Bft)
04.07.2012 06:25 14,2 C 95 % 0,0 l/m 0,6 km/h (0 Bft) S-SO 157 13,4 C 14,1 C 0,0 km/h (0 Bft)
04.07.2012 06:30 14,2 C 95 % 0,0 l/m 0,3 km/h (0 Bft) N 360 13,4 C 14,1 C 0,0 km/h (0 Bft)
04.07.2012 06:35 14,2 C 95 % 0,0 l/m 0,0 km/h (0 Bft) O-SO 112 13,4 C 14,2 C 0,0 km/h (0 Bft)
04.07.2012 06:40 14,2 C 95 % 0,0 l/m 0,0 km/h (0 Bft) S-SW 202 13,4 C 14,4 C 0,0 km/h (0 Bft)
04.07.2012 06:45 14,2 C 95 % 0,0 l/m 0,0 km/h (0 Bft) N-NW 337 13,4 C 14,5 C 0,0 km/h (0 Bft)
04.07.2012 06:50 14,3 C 95 % 0,0 l/m 0,0 km/h (0 Bft) N-NO 22 13,5 C 14,6 C 0,0 km/h (0 Bft)
04.07.2012 06:55 14,4 C 95 % 0,0 l/m 0,0 km/h (0 Bft) N 360 13,6 C 14,6 C 1,9 km/h (1 Bft)
04.07.2012 07:00 14,5 C 95 % 0,0 l/m 0,2 km/h (0 Bft) N-NO 22 13,7 C 14,7 C 0,0 km/h (0 Bft)
04.07.2012 07:05 14,7 C 95 % 0,0 l/m 0,2 km/h (0 Bft) O-NO 67 13,9 C 14,8 C 0,0 km/h (0 Bft)
04.07.2012 07:10 14,9 C 95 % 0,0 l/m 0,0 km/h (0 Bft) O-SO 112 14,1 C 15,1 C 0,0 km/h (0 Bft)
04.07.2012 07:15 15,0 C 94 % 0,0 l/m 0,0 km/h (0 Bft) O 90 14,0 C 15,3 C 0,0 km/h (0 Bft)
04.07.2012 07:20 15,1 C 95 % 0,0 l/m 0,5 km/h (0 Bft) N-NO 22 14,3 C 15,6 C 2,1 km/h (1 Bft)
04.07.2012 07:25 15,1 C 94 % 0,0 l/m 0,5 km/h (0 Bft) O 90 14,1 C 15,7 C 0,0 km/h (0 Bft)
04.07.2012 07:30 15,1 C 94 % 0,0 l/m 0,6 km/h (0 Bft) NO 45 14,1 C 15,9 C 2,1 km/h (1 Bft)
04.07.2012 07:35 15,3 C 94 % 0,0 l/m 0,8 km/h (0 Bft) NO 45 14,3 C 15,9 C 0,0 km/h (0 Bft)
04.07.2012 07:40 16,3 C 93 % 0,0 l/m 0,8 km/h (0 Bft) N-NW 337 15,2 C 16,7 C 0,0 km/h (0 Bft)
04.07.2012 07:45 16,8 C 93 % 0,0 l/m 1,1 km/h (1 Bft) SO 135 15,7 C 17,6 C 2,4 km/h (1 Bft)
04.07.2012 07:50 18,9 C 92 % 0,0 l/m 1,3 km/h (1 Bft) O-SO 112 17,6 C 19,4 C 4,7 km/h (1 Bft)
04.07.2012 07:55 16,7 C 92 % 0,0 l/m 0,8 km/h (0 Bft) W-SW 247 15,4 C 19,6 C 0,0 km/h (0 Bft)
04.07.2012 08:00 16,9 C 92 % 0,0 l/m 0,0 km/h (0 Bft) O 90 15,6 C 19,4 C 0,0 km/h (0 Bft)
04.07.2012 08:05 17,6 C 91 % 0,0 l/m 0,0 km/h (0 Bft) SO 135 16,1 C 19,9 C 0,0 km/h (0 Bft)
04.07.2012 08:10 19,3 C 90 % 0,0 l/m 0,0 km/h (0 Bft) N 360 17,6 C 21,6 C 0,0 km/h (0 Bft)
04.07.2012 08:15 19,3 C 89 % 0,0 l/m 0,0 km/h (0 Bft) O-NO 67 17,4 C 23,0 C 0,0 km/h (0 Bft)
04.07.2012 08:20 20,7 C 86 % 0,0 l/m 0,2 km/h (0 Bft) S 180 18,3 C 23,8 C 0,0 km/h (0 Bft)
04.07.2012 08:25 20,6 C 84 % 0,0 l/m 0,2 km/h (0 Bft) W 270 17,8 C 24,8 C 3,4 km/h (1 Bft)
04.07.2012 08:30 21,1 C 83 % 0,0 l/m 1,1 km/h (1 Bft) N-NO 22 18,1 C 24,5 C 6,8 km/h (2 Bft)
04.07.2012 08:35 18,8 C 84 % 0,0 l/m 1,8 km/h (1 Bft) W 270 16,0 C 24,1 C 4,0 km/h (1 Bft)
04.07.2012 08:40 21,1 C 83 % 0,0 l/m 1,6 km/h (1 Bft) O 90 18,1 C 22,7 C 3,9 km/h (1 Bft)
04.07.2012 08:45 21,2 C 81 % 0,0 l/m 2,4 km/h (1 Bft) N-NW 337 17,8 C 23,5 C 5,5 km/h (1 Bft)
04.07.2012 08:50 21,0 C 82 % 0,0 l/m 3,4 km/h (1 Bft) W-SW 247 17,8 C 23,3 C 8,2 km/h (2 Bft)
04.07.2012 08:55 20,2 C 83 % 0,0 l/m 3,4 km/h (1 Bft) NO 45 17,2 C 22,8 C 4,3 km/h (1 Bft)
04.07.2012 09:00 20,8 C 81 % 0,0 l/m 3,7 km/h (1 Bft) W-SW 247 17,8 C 23,0 C 5,3 km/h (1 Bft)
04.07.2012 09:05 19,8 C 82 % 0,0 l/m 4,2 km/h (1 Bft) W-NW 292 16,6 C 22,3 C 7,6 km/h (2 Bft)
04.07.2012 09:10 20,6 C 82 % 0,0 l/m 4,3 km/h (1 Bft) W-NW 292 17,4 C 21,9 C 3,9 km/h (1 Bft)
04.07.2012 09:15 19,6 C 83 % 0,0 l/m 3,4 km/h (1 Bft) SO 135 16,6 C 22,8 C 1,9 km/h (1 Bft)
04.07.2012 09:20 20,6 C 82 % 0,0 l/m 3,2 km/h (1 Bft) W-NW 292 17,4 C 22,5 C 3,5 km/h (1 Bft)
04.07.2012 09:25 21,3 C 81 % 0,0 l/m 3,4 km/h (1 Bft) W-NW 292 18,4 C 23,0 C 3,4 km/h (1 Bft)
04.07.2012 09:30 21,7 C 78 % 0,0 l/m 3,7 km/h (1 Bft) W-NW 292 18,2 C 24,5 C 7,7 km/h (2 Bft)
04.07.2012 09:35 21,9 C 79 % 0,0 l/m 4,2 km/h (1 Bft) W-NW 292 18,7 C 24,8 C 8,0 km/h (2 Bft)
04.07.2012 09:40 19,9 C 81 % 0,0 l/m 3,5 km/h (1 Bft) N-NW 337 16,5 C 24,5 C 0,0 km/h (0 Bft)
04.07.2012 09:45 19,9 C 83 % 0,0 l/m 3,1 km/h (1 Bft) W-NW 292 16,9 C 23,7 C 4,8 km/h (1 Bft)
04.07.2012 09:50 20,2 C 83 % 0,0 l/m 2,4 km/h (1 Bft) W-NW 292 17,2 C 22,8 C 5,8 km/h (2 Bft)
04.07.2012 09:55 19,2 C 83 % 0,0 l/m 3,2 km/h (1 Bft) W 270 16,2 C 22,1 C 4,8 km/h (1 Bft)
04.07.2012 10:00 20,6 C 83 % 0,0 l/m 3,9 km/h (1 Bft) S-SO 157 17,6 C 22,1 C 2,1 km/h (1 Bft)
04.07.2012 10:05 19,8 C 83 % 0,0 l/m 2,7 km/h (1 Bft) N-NW 337 16,8 C 22,4 C 3,4 km/h (1 Bft)
04.07.2012 10:10 19,7 C 84 % 0,0 l/m 2,9 km/h (1 Bft) W-SW 247 16,9 C 22,3 C 3,1 km/h (1 Bft)
04.07.2012 10:15 20,1 C 85 % 0,0 l/m 3,7 km/h (1 Bft) O-SO 112 17,5 C 21,6 C 3,1 km/h (1 Bft)
04.07.2012 10:20 21,8 C 82 % 0,0 l/m 3,9 km/h (1 Bft) W 270 18,6 C 22,0 C 4,8 km/h (1 Bft)
04.07.2012 10:25 22,2 C 82 % 0,0 l/m 4,0 km/h (1 Bft) N-NW 337 19,0 C 23,1 C 2,4 km/h (1 Bft)
04.07.2012 10:30 21,7 C 79 % 0,0 l/m 4,2 km/h (1 Bft) W-NW 292 17,9 C 23,9 C 5,6 km/h (1 Bft)
04.07.2012 10:35 22,2 C 79 % 0,0 l/m 4,0 km/h (1 Bft) SW 225 18,4 C 24,2 C 3,5 km/h (1 Bft)
04.07.2012 10:40 22,7 C 79 % 0,0 l/m 3,7 km/h (1 Bft) S 180 18,9 C 24,9 C 3,7 km/h (1 Bft)
04.07.2012 10:45 22,3 C 75 % 0,0 l/m 4,0 km/h (1 Bft) W 270 17,6 C 25,0 C 6,3 km/h (2 Bft)
04.07.2012 10:50 21,6 C 79 % 0,0 l/m 5,1 km/h (1 Bft) W-NW 292 17,8 C 24,6 C 10,1 km/h (2 Bft)
04.07.2012 10:55 21,4 C 76 % 0,0 l/m 5,0 km/h (1 Bft) W-NW 292 17,0 C 24,0 C 3,1 km/h (1 Bft)
04.07.2012 11:00 22,7 C 76 % 0,0 l/m 4,2 km/h (1 Bft) W 270 18,2 C 24,7 C 6,4 km/h (2 Bft)
04.07.2012 11:05 22,3 C 73 % 0,0 l/m 4,3 km/h (1 Bft) W-SW 247 17,2 C 24,9 C 5,8 km/h (2 Bft)
04.07.2012 11:10 22,7 C 75 % 0,0 l/m 5,5 km/h (1 Bft) W-SW 247 18,0 C 25,3 C 7,9 km/h (2 Bft)
04.07.2012 11:15 22,4 C 72 % 0,0 l/m 5,0 km/h (1 Bft) NW 315 17,1 C 25,0 C 5,1 km/h (1 Bft)
04.07.2012 11:20 22,1 C 75 % 0,0 l/m 5,0 km/h (1 Bft) W-NW 292 17,5 C 25,0 C 5,3 km/h (1 Bft)
04.07.2012 11:25 22,7 C 73 % 0,0 l/m 4,5 km/h (1 Bft) W-NW 292 17,6 C 25,2 C 3,5 km/h (1 Bft)
04.07.2012 11:30 22,8 C 72 % 0,0 l/m 4,3 km/h (1 Bft) NW 315 17,5 C 26,0 C 6,4 km/h (2 Bft)
04.07.2012 11:35 22,7 C 68 % 0,0 l/m 4,8 km/h (1 Bft) W-SW 247 16,5 C 25,8 C 7,4 km/h (2 Bft)
04.07.2012 11:40 22,7 C 66 % 0,0 l/m 5,0 km/h (1 Bft) W-NW 292 16,0 C 26,0 C 4,7 km/h (1 Bft)
04.07.2012 11:45 23,1 C 60 % 0,0 l/m 4,0 km/h (1 Bft) NW 315 14,9 C 26,0 C 2,3 km/h (1 Bft)
04.07.2012 11:50 22,8 C 61 % 0,0 l/m 3,5 km/h (1 Bft) W-SW 247 14,9 C 26,5 C 4,5 km/h (1 Bft)
04.07.2012 11:55 23,3 C 59 % 0,0 l/m 3,7 km/h (1 Bft) S-SW 202 14,8 C 26,6 C 2,1 km/h (1 Bft)
04.07.2012 12:00 23,4 C 59 % 0,0 l/m 3,7 km/h (1 Bft) N-NW 337 14,9 C 27,4 C 4,7 km/h (1 Bft)
04.07.2012 12:05 23,0 C 56 % 0,0 l/m 3,9 km/h (1 Bft) N-NW 337 13,7 C 26,8 C 4,3 km/h (1 Bft)
04.07.2012 12:10 24,1 C 59 % 0,0 l/m 4,7 km/h (1 Bft) W 270 15,6 C 26,7 C 11,1 km/h (2 Bft)
04.07.2012 12:15 24,0 C 56 % 0,0 l/m 5,0 km/h (1 Bft) W-SW 247 14,7 C 26,5 C 4,2 km/h (1 Bft)
04.07.2012 12:20 24,5 C 56 % 0,0 l/m 4,7 km/h (1 Bft) W-NW 292 15,1 C 26,6 C 11,3 km/h (2 Bft)
04.07.2012 12:25 24,6 C 55 % 0,0 l/m 3,7 km/h (1 Bft) S 180 14,9 C 26,8 C 3,9 km/h (1 Bft)
04.07.2012 12:30 24,9 C 57 % 0,0 l/m 5,0 km/h (1 Bft) W-NW 292 15,8 C 26,6 C 5,5 km/h (1 Bft)
04.07.2012 12:35 24,5 C 55 % 0,0 l/m 5,1 km/h (1 Bft) W-SW 247 14,9 C 26,8 C 6,6 km/h (2 Bft)
04.07.2012 12:40 24,7 C 54 % 0,0 l/m 5,5 km/h (1 Bft) W-SW 247 14,8 C 26,0 C 7,2 km/h (2 Bft)
04.07.2012 12:45 24,3 C 54 % 0,0 l/m 6,3 km/h (2 Bft) N-NW 337 14,4 C 25,8 C 6,8 km/h (2 Bft)
04.07.2012 12:50 23,5 C 57 % 0,0 l/m 5,1 km/h (1 Bft) W 270 14,5 C 26,2 C 5,6 km/h (1 Bft)
04.07.2012 12:55 23,6 C 57 % 0,0 l/m 4,3 km/h (1 Bft) NO 45 14,6 C 26,2 C 2,7 km/h (1 Bft)
04.07.2012 13:00 24,7 C 57 % 0,0 l/m 4,8 km/h (1 Bft) S-SW 202 15,6 C 26,2 C 7,4 km/h (2 Bft)
04.07.2012 13:05 25,2 C 57 % 0,0 l/m 5,1 km/h (1 Bft) W-SW 247 16,1 C 26,5 C 8,2 km/h (2 Bft)
04.07.2012 13:10 24,9 C 56 % 0,0 l/m 6,1 km/h (2 Bft) W 270 15,5 C 26,6 C 11,7 km/h (2 Bft)
04.07.2012 13:15 24,7 C 56 % 0,0 l/m 5,1 km/h (1 Bft) W-NW 292 15,3 C 26,7 C 3,5 km/h (1 Bft)
04.07.2012 13:20 24,3 C 57 % 0,0 l/m 4,0 km/h (1 Bft) NW 315 15,2 C 26,6 C 3,1 km/h (1 Bft)
04.07.2012 13:25 24,5 C 58 % 0,0 l/m 4,2 km/h (1 Bft) S 180 15,7 C 26,9 C 5,5 km/h (1 Bft)
04.07.2012 13:30 23,9 C 59 % 0,0 l/m 4,3 km/h (1 Bft) N-NO 22 15,4 C 27,0 C 6,0 km/h (2 Bft)
04.07.2012 13:35 24,3 C 58 % 0,0 l/m 4,2 km/h (1 Bft) W-NW 292 15,5 C 26,8 C 0,0 km/h (0 Bft)
04.07.2012 13:40 24,8 C 58 % 0,0 l/m 3,9 km/h (1 Bft) NW 315 16,0 C 26,8 C 6,9 km/h (2 Bft)
04.07.2012 13:45 24,6 C 57 % 0,0 l/m 4,2 km/h (1 Bft) S 180 15,5 C 26,7 C 8,0 km/h (2 Bft)
04.07.2012 13:50 23,9 C 59 % 0,0 l/m 5,1 km/h (1 Bft) W-NW 292 15,4 C 25,9 C 6,8 km/h (2 Bft)
04.07.2012 13:55 24,1 C 59 % 0,0 l/m 4,8 km/h (1 Bft) N 360 15,6 C 25,8 C 2,1 km/h (1 Bft)
04.07.2012 14:00 24,6 C 58 % 0,0 l/m 3,4 km/h (1 Bft) W-SW 247 15,8 C 26,8 C 4,0 km/h (1 Bft)
04.07.2012 14:05 24,9 C 56 % 0,0 l/m 3,5 km/h (1 Bft) W-SW 247 15,5 C 27,2 C 5,5 km/h (1 Bft)
04.07.2012 14:10 24,8 C 59 % 0,0 l/m 3,7 km/h (1 Bft) W 270 16,2 C 26,6 C 3,7 km/h (1 Bft)
04.07.2012 14:15 24,5 C 57 % 0,0 l/m 3,9 km/h (1 Bft) W-NW 292 15,4 C 26,7 C 6,8 km/h (2 Bft)
04.07.2012 14:20 24,7 C 58 % 0,0 l/m 4,3 km/h (1 Bft) W-SW 247 15,9 C 26,3 C 2,4 km/h (1 Bft)
04.07.2012 14:25 24,2 C 58 % 0,0 l/m 4,5 km/h (1 Bft) W 270 15,4 C 26,6 C 8,5 km/h (2 Bft)
04.07.2012 14:30 23,8 C 59 % 0,0 l/m 4,2 km/h (1 Bft) W-NW 292 15,3 C 25,9 C 5,3 km/h (1 Bft)
04.07.2012 14:35 24,4 C 57 % 0,0 l/m 4,0 km/h (1 Bft) W-SW 247 15,3 C 26,0 C 2,3 km/h (1 Bft)
04.07.2012 14:40 25,1 C 55 % 0,0 l/m 4,0 km/h (1 Bft) W 270 15,4 C 27,3 C 3,7 km/h (1 Bft)
04.07.2012 14:45 23,9 C 58 % 0,0 l/m 4,0 km/h (1 Bft) W-NW 292 15,1 C 27,0 C 4,5 km/h (1 Bft)
04.07.2012 14:50 23,5 C 59 % 0,0 l/m 4,5 km/h (1 Bft) W 270 15,0 C 26,1 C 2,6 km/h (1 Bft)
04.07.2012 14:55 23,6 C 59 % 0,0 l/m 5,1 km/h (1 Bft) NW 315 15,1 C 25,6 C 8,7 km/h (2 Bft)
04.07.2012 15:00 24,9 C 57 % 0,0 l/m 4,7 km/h (1 Bft) W 270 15,8 C 25,9 C 4,2 km/h (1 Bft)
04.07.2012 15:05 24,8 C 57 % 0,0 l/m 3,5 km/h (1 Bft) N-NW 337 15,7 C 26,5 C 4,5 km/h (1 Bft)
04.07.2012 15:10 24,1 C 59 % 0,0 l/m 4,0 km/h (1 Bft) W-SW 247 15,6 C 26,4 C 12,1 km/h (2 Bft)
04.07.2012 15:15 24,6 C 58 % 0,0 l/m 4,3 km/h (1 Bft) S 180 15,8 C 26,6 C 4,3 km/h (1 Bft)
04.07.2012 15:20 25,0 C 56 % 0,0 l/m 3,7 km/h (1 Bft) NW 315 15,6 C 27,6 C 5,8 km/h (2 Bft)
04.07.2012 15:25 24,0 C 58 % 0,0 l/m 4,3 km/h (1 Bft) W-NW 292 15,2 C 27,0 C 5,3 km/h (1 Bft)
04.07.2012 15:30 24,5 C 58 % 0,0 l/m 4,2 km/h (1 Bft) S 180 15,7 C 26,0 C 5,1 km/h (1 Bft)
04.07.2012 15:35 24,8 C 56 % 0,0 l/m 3,5 km/h (1 Bft) W-NW 292 15,4 C 26,4 C 1,8 km/h (1 Bft)
04.07.2012 15:40 23,8 C 59 % 0,0 l/m 3,4 km/h (1 Bft) W-NW 292 15,3 C 26,5 C 6,1 km/h (2 Bft)
04.07.2012 15:45 24,5 C 59 % 0,0 l/m 3,5 km/h (1 Bft) N-NW 337 15,9 C 26,4 C 2,6 km/h (1 Bft)
04.07.2012 15:50 24,8 C 58 % 0,0 l/m 3,5 km/h (1 Bft) N-NW 337 16,0 C 27,2 C 3,9 km/h (1 Bft)
04.07.2012 15:55 23,6 C 59 % 0,0 l/m 3,9 km/h (1 Bft) W 270 15,1 C 26,9 C 4,5 km/h (1 Bft)
04.07.2012 16:00 23,1 C 61 % 0,0 l/m 4,3 km/h (1 Bft) W-NW 292 15,2 C 25,5 C 3,5 km/h (1 Bft)
04.07.2012 16:05 23,1 C 63 % 0,0 l/m 3,7 km/h (1 Bft) N 360 15,7 C 25,1 C 2,4 km/h (1 Bft)
04.07.2012 16:10 23,5 C 60 % 0,0 l/m 3,5 km/h (1 Bft) NO 45 15,3 C 25,5 C 3,9 km/h (1 Bft)
04.07.2012 16:15 23,6 C 62 % 0,0 l/m 3,1 km/h (1 Bft) W-SW 247 15,9 C 25,6 C 2,1 km/h (1 Bft)
04.07.2012 16:20 24,5 C 59 % 0,0 l/m 3,4 km/h (1 Bft) W-NW 292 15,9 C 26,7 C 7,1 km/h (2 Bft)
04.07.2012 16:25 23,7 C 60 % 0,0 l/m 3,4 km/h (1 Bft) W-NW 292 15,5 C 26,9 C 7,7 km/h (2 Bft)
04.07.2012 16:30 23,1 C 60 % 0,0 l/m 4,5 km/h (1 Bft) W-SW 247 14,9 C 25,7 C 7,6 km/h (2 Bft)
04.07.2012 16:35 23,0 C 61 % 0,0 l/m 4,3 km/h (1 Bft) O 90 15,1 C 25,1 C 3,4 km/h (1 Bft)
04.07.2012 16:40 22,9 C 64 % 0,0 l/m 2,9 km/h (1 Bft) SW 225 15,7 C 24,8 C 3,2 km/h (1 Bft)
04.07.2012 16:45 23,1 C 62 % 0,0 l/m 2,9 km/h (1 Bft) W-NW 292 15,4 C 24,9 C 7,9 km/h (2 Bft)
04.07.2012 16:50 23,3 C 62 % 0,0 l/m 3,9 km/h (1 Bft) W 270 15,6 C 24,7 C 6,1 km/h (2 Bft)
04.07.2012 16:55 23,1 C 63 % 0,0 l/m 4,2 km/h (1 Bft) N-NW 337 15,7 C 24,6 C 4,7 km/h (1 Bft)
04.07.2012 17:00 23,0 C 63 % 0,0 l/m 3,4 km/h (1 Bft) W 270 15,6 C 24,4 C 3,1 km/h (1 Bft)
04.07.2012 17:05 22,8 C 65 % 0,0 l/m 3,5 km/h (1 Bft) W-SW 247 15,9 C 24,1 C 5,1 km/h (1 Bft)
04.07.2012 17:10 22,1 C 66 % 0,0 l/m 3,7 km/h (1 Bft) W-NW 292 15,4 C 23,4 C 0,0 km/h (0 Bft)
04.07.2012 17:15 21,9 C 66 % 0,0 l/m 3,9 km/h (1 Bft) W-SW 247 15,3 C 23,1 C 3,7 km/h (1 Bft)
04.07.2012 17:20 21,8 C 68 % 0,0 l/m 2,6 km/h (1 Bft) W-NW 292 15,6 C 22,8 C 3,9 km/h (1 Bft)
04.07.2012 17:25 21,8 C 69 % 0,0 l/m 1,9 km/h (1 Bft) W-NW 292 15,9 C 22,8 C 4,3 km/h (1 Bft)
04.07.2012 17:30 22,3 C 67 % 0,0 l/m 1,4 km/h (1 Bft) W-NW 292 15,9 C 23,3 C 2,3 km/h (1 Bft)
04.07.2012 17:35 22,6 C 67 % 0,0 l/m 2,1 km/h (1 Bft) W-SW 247 16,2 C 24,2 C 6,1 km/h (2 Bft)
04.07.2012 17:40 22,5 C 68 % 0,0 l/m 2,6 km/h (1 Bft) W-NW 292 16,3 C 24,4 C 3,5 km/h (1 Bft)
04.07.2012 17:45 22,4 C 67 % 0,0 l/m 2,6 km/h (1 Bft) W-SW 247 16,0 C 24,1 C 4,7 km/h (1 Bft)
04.07.2012 17:50 22,1 C 68 % 0,0 l/m 2,9 km/h (1 Bft) S 180 15,9 C 23,6 C 0,0 km/h (0 Bft)
04.07.2012 17:55 22,0 C 69 % 0,0 l/m 2,6 km/h (1 Bft) W-NW 292 16,0 C 23,2 C 3,1 km/h (1 Bft)
04.07.2012 18:00 21,6 C 70 % 0,0 l/m 1,8 km/h (1 Bft) S-SO 157 15,9 C 22,8 C 3,1 km/h (1 Bft)
04.07.2012 18:05 21,6 C 69 % 0,0 l/m 2,1 km/h (1 Bft) W-NW 292 15,7 C 22,5 C 1,9 km/h (1 Bft)
04.07.2012 18:10 21,5 C 70 % 0,0 l/m 2,3 km/h (1 Bft) SO 135 15,8 C 22,3 C 0,0 km/h (0 Bft)
04.07.2012 18:15 21,3 C 71 % 0,0 l/m 1,3 km/h (1 Bft) W 270 15,8 C 22,1 C 0,0 km/h (0 Bft)
04.07.2012 18:20 21,0 C 72 % 0,0 l/m 0,5 km/h (0 Bft) W-SW 247 15,8 C 21,9 C 0,0 km/h (0 Bft)
04.07.2012 18:25 21,1 C 72 % 0,0 l/m 1,1 km/h (1 Bft) S-SO 157 15,8 C 21,7 C 3,1 km/h (1 Bft)
04.07.2012 18:30 20,8 C 73 % 0,0 l/m 1,3 km/h (1 Bft) N 360 15,8 C 21,4 C 1,9 km/h (1 Bft)
04.07.2012 18:35 20,2 C 75 % 0,0 l/m 1,0 km/h (0 Bft) N-NO 22 15,6 C 21,1 C 0,0 km/h (0 Bft)
04.07.2012 18:40 20,0 C 77 % 0,0 l/m 0,0 km/h (0 Bft) N-NO 22 15,8 C 20,4 C 0,0 km/h (0 Bft)
04.07.2012 18:45 19,9 C 78 % 0,0 l/m 0,0 km/h (0 Bft) O-SO 112 15,9 C 20,2 C 0,0 km/h (0 Bft)
04.07.2012 18:50 19,6 C 79 % 0,0 l/m 0,0 km/h (0 Bft) N 360 15,9 C 20,1 C 0,0 km/h (0 Bft)
04.07.2012 18:55 19,6 C 79 % 0,0 l/m 0,0 km/h (0 Bft) O 90 15,9 C 19,9 C 0,0 km/h (0 Bft)
04.07.2012 19:00 19,7 C 79 % 0,0 l/m 0,0 km/h (0 Bft) SO 135 16,0 C 19,8 C 0,0 km/h (0 Bft)
04.07.2012 19:05 19,6 C 79 % 0,0 l/m 0,2 km/h (0 Bft) S-SO 157 15,9 C 19,7 C 0,0 km/h (0 Bft)
04.07.2012 19:10 19,6 C 79 % 0,0 l/m 1,1 km/h (1 Bft) O 90 15,9 C 19,8 C 2,4 km/h (1 Bft)
04.07.2012 19:15 19,6 C 79 % 0,0 l/m 1,8 km/h (1 Bft) S 180 15,9 C 19,8 C 0,0 km/h (0 Bft)
04.07.2012 19:20 19,5 C 79 % 0,0 l/m 1,6 km/h (1 Bft) N-NO 22 15,8 C 19,7 C 0,0 km/h (0 Bft)
04.07.2012 19:25 19,5 C 79 % 0,0 l/m 1,1 km/h (1 Bft) NO 45 15,8 C 19,6 C 1,9 km/h (1 Bft)
04.07.2012 19:30 19,5 C 79 % 0,0 l/m 0,8 km/h (0 Bft) N-NO 22 15,8 C 19,6 C 2,3 km/h (1 Bft)
04.07.2012 19:35 18,5 C 86 % 0,0 l/m 1,6 km/h (1 Bft) N-NW 337 16,1 C 19,2 C 4,8 km/h (1 Bft)
04.07.2012 19:40 18,0 C 88 % 0,7 l/m 2,9 km/h (1 Bft) N 360 16,0 C 18,4 C 5,5 km/h (1 Bft)
04.07.2012 19:45 18,0 C 88 % 0,7 l/m 2,7 km/h (1 Bft) O 90 16,0 C 18,0 C 0,0 km/h (0 Bft)
04.07.2012 19:50 18,0 C 89 % 0,0 l/m 0,8 km/h (0 Bft) N 360 16,2 C 18,0 C 0,0 km/h (0 Bft)
04.07.2012 19:55 17,9 C 89 % 0,7 l/m 0,2 km/h (0 Bft) N 360 16,1 C 17,9 C 0,0 km/h (0 Bft)
04.07.2012 20:00 17,8 C 90 % 0,0 l/m 0,3 km/h (0 Bft) O-SO 112 16,1 C 17,8 C 0,0 km/h (0 Bft)
04.07.2012 20:05 17,7 C 90 % 0,0 l/m 0,3 km/h (0 Bft) N-NW 337 16,0 C 17,7 C 1,9 km/h (1 Bft)
04.07.2012 20:10 17,6 C 90 % 0,7 l/m 0,3 km/h (0 Bft) S 180 15,9 C 17,6 C 0,0 km/h (0 Bft)
04.07.2012 20:15 17,5 C 90 % 0,0 l/m 1,4 km/h (1 Bft) N-NW 337 15,8 C 17,4 C 4,7 km/h (1 Bft)
04.07.2012 20:20 16,4 C 90 % 0,0 l/m 2,6 km/h (1 Bft) N 360 14,8 C 16,7 C 3,4 km/h (1 Bft)
04.07.2012 20:25 16,3 C 90 % 0,0 l/m 3,1 km/h (1 Bft) N 360 14,7 C 16,3 C 7,9 km/h (2 Bft)
04.07.2012 20:30 16,3 C 90 % 0,0 l/m 2,7 km/h (1 Bft) SO 135 14,7 C 16,2 C 2,4 km/h (1 Bft)
04.07.2012 20:35 16,3 C 90 % 0,0 l/m 2,4 km/h (1 Bft) O-SO 112 14,7 C 16,2 C 5,0 km/h (1 Bft)
04.07.2012 20:40 16,0 C 90 % 0,0 l/m 2,9 km/h (1 Bft) S-SO 157 14,4 C 16,0 C 5,0 km/h (1 Bft)
04.07.2012 20:45 15,9 C 92 % 0,0 l/m 3,2 km/h (1 Bft) S 180 14,6 C 15,8 C 5,3 km/h (1 Bft)
04.07.2012 20:50 15,7 C 92 % 0,0 l/m 1,9 km/h (1 Bft) W 270 14,4 C 15,6 C 2,4 km/h (1 Bft)
04.07.2012 20:55 15,7 C 92 % 0,0 l/m 1,6 km/h (1 Bft) W-NW 292 14,4 C 15,5 C 0,0 km/h (0 Bft)
04.07.2012 21:00 15,6 C 92 % 0,0 l/m 1,0 km/h (0 Bft) O 90 14,3 C 15,4 C 0,0 km/h (0 Bft)
04.07.2012 21:05 15,6 C 92 % 0,0 l/m 0,2 km/h (0 Bft) S 180 14,3 C 15,4 C 2,1 km/h (1 Bft)
04.07.2012 21:10 15,6 C 92 % 0,7 l/m 1,0 km/h (0 Bft) SO 135 14,3 C 15,4 C 2,1 km/h (1 Bft)
04.07.2012 21:15 15,6 C 92 % 0,0 l/m 1,8 km/h (1 Bft) SO 135 14,3 C 15,4 C 4,7 km/h (1 Bft)
04.07.2012 21:20 15,5 C 92 % 0,0 l/m 3,2 km/h (1 Bft) S-SO 157 14,2 C 15,4 C 3,5 km/h (1 Bft)
04.07.2012 21:25 15,5 C 93 % 0,0 l/m 4,3 km/h (1 Bft) O-SO 112 14,4 C 15,3 C 9,8 km/h (2 Bft)
04.07.2012 21:30 15,4 C 93 % 0,7 l/m 3,4 km/h (1 Bft) W-SW 247 14,3 C 15,3 C 0,0 km/h (0 Bft)
04.07.2012 21:35 15,4 C 93 % 0,0 l/m 2,1 km/h (1 Bft) S-SW 202 14,3 C 15,2 C 2,7 km/h (1 Bft)
04.07.2012 21:40 15,3 C 93 % 0,0 l/m 1,1 km/h (1 Bft) O-NO 67 14,2 C 15,2 C 0,0 km/h (0 Bft)
04.07.2012 21:45 15,2 C 93 % 0,7 l/m 1,4 km/h (1 Bft) NO 45 14,1 C 15,2 C 3,7 km/h (1 Bft)
04.07.2012 21:50 15,2 C 93 % 0,0 l/m 2,3 km/h (1 Bft) S-SO 157 14,1 C 15,1 C 5,8 km/h (2 Bft)
04.07.2012 21:55 15,2 C 93 % 0,0 l/m 3,1 km/h (1 Bft) SO 135 14,1 C 15,0 C 2,1 km/h (1 Bft)
04.07.2012 22:00 15,1 C 93 % 0,0 l/m 1,8 km/h (1 Bft) N-NO 22 14,0 C 15,0 C 0,0 km/h (0 Bft)
04.07.2012 22:05 15,0 C 93 % 0,0 l/m 0,3 km/h (0 Bft) W 270 13,9 C 14,9 C 1,9 km/h (1 Bft)
04.07.2012 22:10 14,9 C 93 % 0,0 l/m 0,2 km/h (0 Bft) S-SO 157 13,8 C 14,9 C 1,9 km/h (1 Bft)
04.07.2012 22:15 14,9 C 93 % 0,0 l/m 0,6 km/h (0 Bft) SO 135 13,8 C 14,8 C 1,6 km/h (1 Bft)
04.07.2012 22:20 14,8 C 93 % 0,0 l/m 1,0 km/h (0 Bft) S-SW 202 13,7 C 14,8 C 2,7 km/h (1 Bft)
04.07.2012 22:25 14,8 C 93 % 0,0 l/m 1,0 km/h (0 Bft) SO 135 13,7 C 14,7 C 0,0 km/h (0 Bft)
04.07.2012 22:30 14,7 C 93 % 0,0 l/m 1,0 km/h (0 Bft) O-NO 67 13,6 C 14,7 C 0,0 km/h (0 Bft)
04.07.2012 22:35 14,7 C 93 % 0,0 l/m 0,8 km/h (0 Bft) S-SW 202 13,6 C 14,6 C 2,1 km/h (1 Bft)
04.07.2012 22:40 14,7 C 93 % 0,0 l/m 1,8 km/h (1 Bft) NO 45 13,6 C 14,6 C 0,0 km/h (0 Bft)
04.07.2012 22:45 14,7 C 93 % 0,0 l/m 1,8 km/h (1 Bft) N-NO 22 13,6 C 14,6 C 2,7 km/h (1 Bft)
04.07.2012 22:50 14,7 C 93 % 0,0 l/m 1,0 km/h (0 Bft) S 180 13,6 C 14,6 C 0,0 km/h (0 Bft)
04.07.2012 22:55 14,6 C 93 % 0,0 l/m 1,0 km/h (0 Bft) S 180 13,5 C 14,6 C 0,0 km/h (0 Bft)
04.07.2012 23:00 14,6 C 93 % 0,0 l/m 0,5 km/h (0 Bft) W 270 13,5 C 14,6 C 1,9 km/h (1 Bft)
04.07.2012 23:05 14,6 C 94 % 0,0 l/m 0,6 km/h (0 Bft) S 180 13,6 C 14,6 C 3,7 km/h (1 Bft)
04.07.2012 23:10 14,6 C 94 % 0,0 l/m 0,8 km/h (0 Bft) SO 135 13,6 C 14,6 C 1,6 km/h (1 Bft)
04.07.2012 23:15 14,5 C 94 % 0,0 l/m 0,6 km/h (0 Bft) NO 45 13,5 C 14,6 C 0,0 km/h (0 Bft)
04.07.2012 23:20 14,5 C 94 % 0,0 l/m 0,5 km/h (0 Bft) SO 135 13,5 C 14,5 C 1,9 km/h (1 Bft)
04.07.2012 23:25 14,4 C 94 % 0,0 l/m 0,5 km/h (0 Bft) O 90 13,4 C 14,5 C 0,0 km/h (0 Bft)
04.07.2012 23:30 14,4 C 94 % 0,0 l/m 0,5 km/h (0 Bft) NO 45 13,4 C 14,4 C 0,0 km/h (0 Bft)
04.07.2012 23:35 14,4 C 94 % 0,0 l/m 0,6 km/h (0 Bft) SO 135 13,4 C 14,4 C 3,4 km/h (1 Bft)
04.07.2012 23:40 14,4 C 94 % 0,0 l/m 2,9 km/h (1 Bft) O-SO 112 13,4 C 14,4 C 4,7 km/h (1 Bft)
04.07.2012 23:45 14,4 C 94 % 0,0 l/m 3,1 km/h (1 Bft) N-NW 337 13,4 C 14,5 C 0,0 km/h (0 Bft)
04.07.2012 23:50 14,3 C 94 % 0,0 l/m 1,3 km/h (1 Bft) N-NO 22 13,3 C 14,4 C 2,9 km/h (1 Bft)
04.07.2012 23:55 14,3 C 94 % 0,0 l/m 0,6 km/h (0 Bft) O-SO 112 13,3 C 14,4 C 2,3 km/h (1 Bft)
_ Min-Zeit 04:05 12:45 - 19:00 - - 04:00 04:10 23:45
Minimum _ 12,9 C 54 % - 0,0 km/h (0 Bft) - - 12,1 C 12,9 C 0,0 km/h (0 Bft)
_ Max-Zeit 13:05 07:20 21:45 12:45 - - 10:25 15:20 15:10
Maximum _ 25,2 C 95 % 0,7 l/m 6,3 km/h
N-NW (2 Bft)
- - 19,0 C 27,6 C 12,1 km/h
W-SW (2 Bft)
Durchschnitt _ 18,6 C 81 % #4,8 l/m 1,9 km/h (1 Bft) W-NW - 15,0 C 19,6 C 2,5 km/h (1 Bft)